Time;durP1;ratioP1;P1;durP2;ratioP2;P2;SDS_P1;SDS_P2;PMS_P1;PMS_P2;Temp;Humidity;BMP_temperature;BMP_pressure;BME280_temperature;BME280_humidity;BME280_pressure;Samples;Min_cycle;Max_cycle;Signal;HPM_P1;HPM_P2
2023/09/21 04:33:16;;;;;;;;;1.25;1.00;;;;;28.54;48.68;99384.16;5016376;28;45614;-62
2023/09/21 04:35:41;;;;;;;;;1.00;1.00;;;;;28.40;48.87;99385.28;5018828;28;45540;-62
2023/09/21 04:38:08;;;;;;;;;1.00;1.00;;;;;28.70;47.86;99385.56;5018629;28;45484;-63
2023/09/21 04:40:33;;;;;;;;;1.50;1.50;;;;;28.76;48.11;99370.03;5018780;28;45323;-62
2023/09/21 04:42:59;;;;;;;;;2.00;2.00;;;;;28.32;48.07;99324.88;5018399;28;45270;-62
2023/09/21 04:45:26;;;;;;;;;2.00;2.00;;;;;28.79;47.95;99375.13;5018654;28;45273;-62
2023/09/21 04:47:58;;;;;;;;;1.00;1.00;;;;;28.71;47.87;99356.91;5018676;28;45265;-62
2023/09/21 04:50:24;;;;;;;;;2.75;1.50;;;;;28.65;48.50;99357.78;5017405;28;45768;-63
2023/09/21 04:52:50;;;;;;;;;1.50;1.50;;;;;28.84;47.92;99347.72;5018149;28;47011;-62
2023/09/21 04:55:18;;;;;;;;;1.50;1.50;;;;;28.83;47.15;99335.03;5017573;28;45346;-62
2023/09/21 04:57:45;;;;;;;;;1.25;1.00;;;;;28.98;47.42;99335.53;5018510;28;45371;-63
2023/09/21 05:00:13;;;;;;;;;0.50;0.50;;;;;28.95;47.50;99330.47;5000407;28;45499;-62
2023/09/21 05:02:39;;;;;;;;;2.50;1.50;;;;;28.72;47.47;99335.69;5013453;28;47225;-63
2023/09/21 05:05:06;;;;;;;;;1.75;1.00;;;;;28.76;47.54;99323.13;5018341;28;45337;-63
2023/09/21 05:07:31;;;;;;;;;1.00;1.00;;;;;28.76;47.71;99312.97;5021528;28;45366;-55
2023/09/21 05:09:57;;;;;;;;;2.50;2.50;;;;;28.83;47.55;99321.22;5021890;28;45255;-56
2023/09/21 05:12:22;;;;;;;;;2.00;2.00;;;;;28.84;47.83;99326.50;5021066;28;46253;-53
2023/09/21 05:14:50;;;;;;;;;2.25;2.25;;;;;28.84;47.75;99317.38;5021939;28;45302;-52
2023/09/21 05:17:16;;;;;;;;;2.50;1.75;;;;;28.87;47.65;99330.72;5021717;28;45401;-54
2023/09/21 05:19:44;;;;;;;;;2.50;2.50;;;;;28.87;48.11;99331.56;5021463;28;45318;-53
2023/09/21 05:22:10;;;;;;;;;2.75;2.75;;;;;28.81;47.63;99339.91;5020567;28;45334;-54
2023/09/21 05:24:36;;;;;;;;;5.00;3.00;;;;;28.78;48.32;99332.91;5021795;28;45254;-54
2023/09/21 05:27:05;;;;;;;;;4.75;3.00;;;;;28.70;47.70;99326.78;5021546;28;45317;-53
2023/09/21 05:29:30;;;;;;;;;3.00;2.50;;;;;28.46;48.35;99315.47;5020696;28;45507;-53
2023/09/21 05:31:56;;;;;;;;;3.50;3.50;;;;;28.60;48.11;99332.78;5007871;28;46259;-53
2023/09/21 05:34:24;;;;;;;;;4.25;4.00;;;;;28.62;48.08;99341.69;5021101;28;45400;-55
2023/09/21 05:36:54;;;;;;;;;5.50;5.00;;;;;28.33;48.56;99343.09;5021253;28;45214;-55
2023/09/21 05:39:19;;;;;;;;;3.25;3.25;;;;;28.47;48.19;99339.22;5020986;28;46085;-53
2023/09/21 05:41:52;;;;;;;;;3.00;3.00;;;;;28.60;47.96;99330.88;5020871;28;46063;-59
2023/09/21 05:44:21;;;;;;;;;3.75;3.00;;;;;28.73;47.43;99331.88;5021266;28;45290;-59
2023/09/21 05:46:49;;;;;;;;;5.50;4.50;;;;;28.51;47.89;99329.44;5020850;28;45399;-59
2023/09/21 05:49:21;;;;;;;;;2.75;2.00;;;;;28.18;49.09;99335.09;5020770;28;45448;-59
2023/09/21 05:51:48;;;;;;;;;3.25;3.25;;;;;28.41;47.92;99342.03;5020603;28;45961;-60
2023/09/21 05:54:16;;;;;;;;;1.75;1.75;;;;;28.41;47.90;99347.53;5020944;28;45408;-59
2023/09/21 05:56:41;;;;;;;;;2.50;2.50;;;;;28.58;47.67;99341.25;5020787;28;45301;-58
2023/09/21 05:59:07;;;;;;;;;2.00;1.75;;;;;28.44;48.15;99364.47;5020701;28;45536;-60
2023/09/21 06:01:32;;;;;;;;;1.00;1.00;;;;;28.22;48.07;99372.19;5020109;28;45623;-59
2023/09/21 06:03:59;;;;;;;;;2.50;2.50;;;;;28.23;48.16;99349.09;5015627;28;45416;-60
2023/09/21 06:06:28;;;;;;;;;2.00;1.00;;;;;27.85;48.41;99359.97;5020171;28;45341;-60
2023/09/21 06:08:54;;;;;;;;;2.50;2.00;;;;;28.25;47.76;99357.13;5020293;28;46222;-60
2023/09/21 06:11:20;;;;;;;;;2.50;2.50;;;;;28.06;47.75;99364.38;5020122;28;45305;-60
2023/09/21 06:13:45;;;;;;;;;3.00;3.00;;;;;28.03;47.79;99361.19;5018272;28;45345;-58
2023/09/21 06:16:10;;;;;;;;;2.75;2.75;;;;;28.24;47.90;99370.03;5019834;28;52055;-60
2023/09/21 06:18:35;;;;;;;;;2.25;2.25;;;;;28.09;48.40;99361.16;5019010;28;45302;-59
2023/09/21 06:21:02;;;;;;;;;3.25;1.50;;;;;28.16;47.54;99373.03;5018434;28;65539;-60
2023/09/21 06:23:27;;;;;;;;;1.00;1.00;;;;;28.22;48.03;99366.69;5019850;28;45372;-59
2023/09/21 06:25:54;;;;;;;;;2.25;2.25;;;;;28.14;48.15;99372.41;5019578;28;45291;-59
2023/09/21 06:28:21;;;;;;;;;3.00;3.00;;;;;28.17;48.23;99369.22;5020250;28;45563;-60
2023/09/21 06:30:47;;;;;;;;;3.00;2.00;;;;;27.74;48.54;99357.00;5019777;28;46965;-59
2023/09/21 06:33:13;;;;;;;;;1.75;1.75;;;;;28.05;48.32;99365.44;5019120;28;45412;-59
2023/09/21 06:35:40;;;;;;;;;2.00;2.00;;;;;28.03;48.43;99363.94;5019640;28;45381;-61
2023/09/21 06:38:06;;;;;;;;;3.25;3.00;;;;;28.55;47.54;99369.28;5019988;28;45318;-60
2023/09/21 06:40:34;;;;;;;;;2.75;2.75;;;;;28.15;48.31;99374.09;5019830;28;46231;-59
2023/09/21 06:43:00;;;;;;;;;2.75;2.50;;;;;28.44;47.66;99371.88;5019193;28;45476;-60
2023/09/21 06:45:31;;;;;;;;;2.00;1.50;;;;;28.35;47.83;99371.28;5005590;28;45431;-61
2023/09/21 06:47:56;;;;;;;;;2.00;2.00;;;;;28.28;47.88;99387.00;5018425;28;45432;-59
2023/09/21 06:50:22;;;;;;;;;3.25;3.25;;;;;28.36;47.68;99394.19;5020090;28;46314;-59
2023/09/21 06:52:47;;;;;;;;;2.75;2.75;;;;;28.58;47.83;99401.13;5019803;28;45266;-59
2023/09/21 06:55:14;;;;;;;;;2.25;2.25;;;;;28.27;48.61;99395.50;5019669;28;45437;-60
2023/09/21 06:57:40;;;;;;;;;2.25;2.25;;;;;28.19;48.36;99397.44;5019849;28;45471;-59
2023/09/21 07:00:09;;;;;;;;;2.00;2.00;;;;;28.21;48.59;99406.34;5019790;28;45401;-60
2023/09/21 07:02:37;;;;;;;;;3.00;1.75;;;;;28.08;48.76;99398.06;5014337;28;45247;-60
2023/09/21 07:05:03;;;;;;;;;3.50;3.50;;;;;28.22;48.32;99382.38;5019908;28;45227;-60
2023/09/21 07:07:30;;;;;;;;;1.75;1.75;;;;;28.23;48.41;99400.59;5019512;28;45232;-59
2023/09/21 07:09:57;;;;;;;;;3.00;2.75;;;;;28.35;48.04;99389.72;5019714;28;46438;-60
2023/09/21 07:12:22;;;;;;;;;4.00;3.75;;;;;28.27;48.70;99381.72;5019634;28;45432;-59
2023/09/21 07:14:50;;;;;;;;;3.00;3.00;;;;;28.30;49.15;99386.78;5020096;28;45421;-60
2023/09/21 07:17:16;;;;;;;;;3.50;2.00;;;;;28.14;49.31;99382.59;5019537;28;45564;-61
2023/09/21 07:19:42;;;;;;;;;2.00;1.50;;;;;28.21;48.79;99383.44;5018892;28;45565;-58
2023/09/21 07:22:07;;;;;;;;;2.75;2.75;;;;;28.22;48.84;99385.13;5019348;28;45361;-60
2023/09/21 07:24:33;;;;;;;;;2.50;2.50;;;;;28.30;48.82;99384.88;5019723;28;45349;-60
2023/09/21 07:26:58;;;;;;;;;2.00;1.75;;;;;28.16;49.46;99381.31;5019254;28;47597;-59
2023/09/21 07:29:24;;;;;;;;;1.50;1.50;;;;;27.92;49.44;99375.63;5019380;28;45338;-59
2023/09/21 07:31:50;;;;;;;;;2.50;2.50;;;;;27.87;49.32;99370.78;5006407;28;45435;-59
2023/09/21 07:34:16;;;;;;;;;3.00;3.00;;;;;27.95;49.65;99355.94;5019300;28;45410;-60
2023/09/21 07:36:46;;;;;;;;;1.00;1.00;;;;;27.94;50.12;99362.50;5018347;28;45293;-59
2023/09/21 07:39:16;;;;;;;;;2.25;2.25;;;;;27.99;49.75;99357.16;5019356;28;46105;-59
2023/09/21 07:41:42;;;;;;;;;2.00;2.00;;;;;27.98;49.62;99364.63;5018988;28;45258;-60
2023/09/21 07:44:10;;;;;;;;;1.75;1.75;;;;;28.02;49.08;99354.00;5019323;28;45253;-59
2023/09/21 07:46:37;;;;;;;;;2.50;2.50;;;;;28.07;49.07;99352.28;5019099;28;45461;-58
2023/09/21 07:49:04;;;;;;;;;0.50;0.50;;;;;28.06;49.05;99341.50;5018827;28;45338;-59
2023/09/21 07:51:31;;;;;;;;;3.25;1.75;;;;;27.93;49.64;99347.88;5018945;28;45597;-58
2023/09/21 07:53:57;;;;;;;;;2.75;2.75;;;;;28.10;48.96;99342.72;5019282;28;45385;-59
2023/09/21 07:56:22;;;;;;;;;1.50;1.50;;;;;28.17;49.05;99344.44;5018883;28;45385;-59
2023/09/21 07:58:47;;;;;;;;;2.25;2.25;;;;;28.11;49.16;99347.19;5018922;28;52777;-58
2023/09/21 08:01:13;;;;;;;;;2.50;1.50;;;;;27.92;49.56;99354.44;5018468;28;55711;-59
2023/09/21 08:03:38;;;;;;;;;3.25;2.00;;;;;28.07;48.82;99345.94;5014336;28;45508;-59
2023/09/21 08:06:03;;;;;;;;;2.50;2.50;;;;;27.95;49.20;99350.41;5000810;28;52574;-63
2023/09/21 08:08:30;;;;;;;;;1.50;1.50;;;;;28.08;48.93;99342.09;5018845;28;46570;-60
2023/09/21 08:10:56;;;;;;;;;2.75;1.75;;;;;27.82;48.90;99340.25;5018682;28;45193;-60
2023/09/21 08:13:24;;;;;;;;;3.50;2.75;;;;;28.14;49.04;99338.50;5018957;28;45404;-59
2023/09/21 08:15:50;;;;;;;;;2.00;2.00;;;;;28.25;48.36;99348.84;5018779;28;45455;-59
2023/09/21 08:18:17;;;;;;;;;2.75;2.75;;;;;28.16;48.81;99337.22;5000720;28;46426;-59
2023/09/21 08:20:42;;;;;;;;;2.50;2.50;;;;;28.25;48.86;99329.56;5019026;28;45376;-59
2023/09/21 08:23:08;;;;;;;;;1.75;1.75;;;;;28.20;48.54;99337.63;5018381;28;54401;-59
2023/09/21 08:25:35;;;;;;;;;4.00;3.00;;;;;28.27;48.56;99334.84;5018356;28;45562;-61
2023/09/21 08:28:03;;;;;;;;;2.25;2.25;;;;;28.20;48.79;99332.13;5018624;28;46651;-60
2023/09/21 08:30:28;;;;;;;;;3.75;2.75;;;;;28.22;48.22;99327.25;5017410;28;45249;-59
2023/09/21 08:32:54;;;;;;;;;3.75;2.75;;;;;28.16;48.61;99328.94;5018176;28;45495;-60
2023/09/21 08:35:19;;;;;;;;;3.00;3.00;;;;;28.26;48.53;99319.38;5018533;28;45494;-59
2023/09/21 08:37:44;;;;;;;;;2.00;2.00;;;;;28.32;48.69;99324.88;5017854;28;46586;-59
2023/09/21 08:40:10;;;;;;;;;3.25;2.50;;;;;28.30;48.26;99324.25;5018417;28;45377;-61
2023/09/21 08:42:37;;;;;;;;;2.50;2.50;;;;;28.35;48.27;99316.16;5022304;28;45315;-60
2023/09/21 08:45:04;;;;;;;;;2.00;2.00;;;;;28.34;47.83;99332.91;5022029;28;45350;-60
2023/09/21 08:47:30;;;;;;;;;3.00;3.00;;;;;28.30;47.88;99328.91;5021819;28;46810;-60
2023/09/21 08:49:56;;;;;;;;;4.25;3.75;;;;;28.24;48.61;99323.19;5021376;28;45392;-61
2023/09/21 08:52:22;;;;;;;;;2.25;2.25;;;;;28.32;48.41;99321.28;5022286;28;45392;-59
2023/09/21 08:54:49;;;;;;;;;1.75;1.75;;;;;28.52;47.39;99336.63;5021114;28;45270;-60
2023/09/21 08:57:14;;;;;;;;;2.00;2.00;;;;;28.43;48.05;99321.41;5020877;28;45451;-59
2023/09/21 08:59:44;;;;;;;;;4.75;3.00;;;;;28.61;47.43;99320.69;5021077;28;59260;-59
2023/09/21 09:02:13;;;;;;;;;2.25;2.25;;;;;28.56;47.02;99317.75;5019376;28;45389;-58
2023/09/21 09:04:42;;;;;;;;;2.00;2.00;;;;;28.52;47.51;99324.75;5019460;28;45450;-60
2023/09/21 09:07:07;;;;;;;;;2.00;2.00;;;;;28.34;48.22;99317.22;5021580;28;46945;-61
2023/09/21 09:09:34;;;;;;;;;2.25;2.00;;;;;28.42;47.81;99310.59;5021489;28;45367;-60
2023/09/21 09:12:00;;;;;;;;;3.25;3.00;;;;;28.48;48.04;99295.97;5021731;28;45385;-60
2023/09/21 09:14:25;;;;;;;;;3.75;2.75;;;;;28.50;47.54;99293.78;5021415;28;46244;-59
2023/09/21 09:16:51;;;;;;;;;2.25;2.25;;;;;28.56;47.53;99285.50;5021307;28;53875;-60
2023/09/21 09:19:16;;;;;;;;;2.50;2.50;;;;;28.59;47.28;99271.25;5021073;28;45275;-60
2023/09/21 09:21:44;;;;;;;;;4.00;4.00;;;;;28.60;47.63;99283.13;5021013;28;51830;-60
2023/09/21 09:24:11;;;;;;;;;2.50;2.50;;;;;28.73;46.88;99276.69;5020695;28;45594;-59
2023/09/21 09:26:38;;;;;;;;;4.25;2.75;;;;;28.74;46.85;99259.94;5021213;28;46275;-59
2023/09/21 09:29:05;;;;;;;;;4.25;3.75;;;;;28.82;46.88;99272.63;5021256;28;45346;-60
2023/09/21 09:31:31;;;;;;;;;2.75;1.50;;;;;28.74;47.16;99278.41;5008731;28;45545;-59
2023/09/21 09:33:57;;;;;;;;;3.00;3.00;;;;;28.77;47.31;99265.00;5020433;28;45226;-59
2023/09/21 09:36:24;;;;;;;;;3.00;2.00;;;;;28.54;47.31;99270.25;5021179;28;46188;-60
2023/09/21 09:38:49;;;;;;;;;2.50;2.50;;;;;28.53;47.38;99282.34;5020766;28;45207;-59
2023/09/21 09:41:16;;;;;;;;;1.50;1.50;;;;;28.16;47.84;99276.59;5021196;28;45528;-59
2023/09/21 09:43:43;;;;;;;;;2.25;2.25;;;;;28.19;48.20;99273.41;5020901;28;46023;-59
2023/09/21 09:46:12;;;;;;;;;1.25;1.25;;;;;28.28;47.94;99270.41;5021102;28;45441;-60
2023/09/21 09:48:43;;;;;;;;;2.25;2.25;;;;;28.13;49.07;99284.44;5020686;28;45325;-59
2023/09/21 09:51:11;;;;;;;;;2.25;2.25;;;;;28.02;49.37;99290.63;5020899;28;45355;-59
2023/09/21 09:53:38;;;;;;;;;2.50;2.50;;;;;27.94;49.00;99285.34;5019647;28;45320;-58
2023/09/21 09:56:08;;;;;;;;;1.50;1.50;;;;;28.09;48.85;99285.94;5020504;28;47496;-60
2023/09/21 09:58:42;;;;;;;;;2.00;2.00;;;;;28.12;48.90;99289.09;5020824;28;45316;-59
2023/09/21 10:01:12;;;;;;;;;1.00;1.00;;;;;28.13;49.23;99304.56;5020911;28;45247;-58
2023/09/21 10:03:38;;;;;;;;;1.50;1.50;;;;;28.24;48.08;99305.84;5015828;28;46219;-60
2023/09/21 10:06:06;;;;;;;;;2.50;1.00;;;;;28.36;47.69;99300.47;5020457;28;46538;-60
2023/09/21 10:08:32;;;;;;;;;0.25;0.25;;;;;28.42;47.01;99302.31;5020571;28;45488;-60
2023/09/21 10:11:01;;;;;;;;;1.00;1.00;;;;;28.36;46.66;99306.81;5019684;28;45447;-60
2023/09/21 10:13:28;;;;;;;;;1.00;1.00;;;;;28.32;46.80;99291.81;5020616;28;45519;-59
2023/09/21 10:16:03;;;;;;;;;1.00;1.00;;;;;28.35;46.26;99299.63;5020531;28;46128;-58
2023/09/21 10:18:35;;;;;;;;;1.00;0.25;;;;;28.31;45.47;99298.38;5019269;28;45308;-59
2023/09/21 10:21:13;;;;;;;;;0.00;0.00;;;;;28.32;45.94;99299.22;5020493;28;45179;-59
2023/09/21 10:24:16;;;;;;;;;0.00;0.00;;;;;28.10;45.69;99269.19;5020276;28;45385;-61
2023/09/21 10:26:51;;;;;;;;;0.50;0.50;;;;;28.24;46.13;99292.06;5019912;28;45634;-60
2023/09/21 10:29:28;;;;;;;;;0.00;0.00;;;;;28.02;45.48;99304.41;5020498;28;45476;-60
2023/09/21 10:31:55;;;;;;;;;1.00;1.00;;;;;28.16;46.70;99308.81;5019922;28;45484;-59
2023/09/21 10:34:24;;;;;;;;;2.00;0.50;;;;;28.27;45.67;99301.78;5019542;28;45405;-61
2023/09/21 10:36:52;;;;;;;;;2.75;2.00;;;;;28.17;45.48;99322.38;5019684;28;46268;-60
2023/09/21 10:39:25;;;;;;;;;0.50;0.50;;;;;28.08;45.22;99325.56;5020447;28;45362;-58
2023/09/21 10:41:55;;;;;;;;;1.25;1.25;;;;;28.10;43.77;99326.19;5020389;28;45271;-60
2023/09/21 10:45:02;;;;;;;;;1.50;1.00;;;;;28.18;44.96;99331.50;5020387;28;45549;-60
2023/09/21 10:47:36;;;;;;;;;0.00;0.00;;;;;28.28;42.88;99337.41;5020188;28;46027;-60
2023/09/21 10:50:10;;;;;;;;;1.00;1.00;;;;;28.17;42.19;99330.66;5019733;28;45492;-61
2023/09/21 10:52:39;;;;;;;;;0.00;0.00;;;;;28.24;43.36;99345.25;5020201;28;45361;-60
2023/09/21 10:55:05;;;;;;;;;1.00;1.00;;;;;28.06;43.06;99358.03;5019860;28;45373;-59
2023/09/21 10:57:32;;;;;;;;;0.50;0.50;;;;;27.85;44.33;99359.97;5019969;28;45639;-61
2023/09/21 11:00:00;;;;;;;;;0.00;0.00;;;;;27.61;44.30;99351.53;5019804;28;45288;-59
2023/09/21 11:02:30;;;;;;;;;1.75;1.75;;;;;27.68;44.67;99364.25;5015257;28;45330;-58
2023/09/21 11:04:57;;;;;;;;;1.00;1.00;;;;;27.67;44.56;99354.28;5019144;28;46249;-60
2023/09/21 11:07:22;;;;;;;;;2.75;2.75;;;;;27.66;44.78;99346.22;5019670;28;46177;-59
2023/09/21 11:09:48;;;;;;;;;1.00;1.00;;;;;27.73;45.07;99333.31;5019982;28;45247;-59
2023/09/21 11:12:14;;;;;;;;;1.25;1.25;;;;;27.93;44.11;99311.22;5020015;28;45322;-60
2023/09/21 11:14:47;;;;;;;;;3.00;1.75;;;;;27.90;44.76;99300.66;5019908;28;45490;-59
2023/09/21 11:17:15;;;;;;;;;1.50;0.50;;;;;27.87;43.93;99279.88;5019322;28;46116;-60
2023/09/21 11:19:42;;;;;;;;;0.25;0.25;;;;;27.92;43.16;99269.03;5019564;28;45412;-61
2023/09/21 11:22:12;;;;;;;;;0.00;0.00;;;;;27.94;42.19;99282.59;5019662;28;45255;-60
2023/09/21 11:24:38;;;;;;;;;0.25;0.25;;;;;27.88;41.99;99303.59;5019248;28;45552;-59
2023/09/21 11:27:06;;;;;;;;;0.50;0.50;;;;;27.37;43.84;99314.50;5019466;28;46155;-60
2023/09/21 11:29:33;;;;;;;;;0.50;0.50;;;;;27.23;43.77;99321.88;5019206;28;45322;-60
2023/09/21 11:32:00;;;;;;;;;1.00;1.00;;;;;27.19;43.96;99304.13;5005259;28;45333;-59
2023/09/21 11:34:25;;;;;;;;;1.25;1.25;;;;;27.29;44.43;99306.44;5018414;28;45664;-60
2023/09/21 11:36:51;;;;;;;;;0.00;0.00;;;;;27.19;43.71;99292.28;5019160;28;45242;-60
2023/09/21 11:39:16;;;;;;;;;0.00;0.00;;;;;27.02;43.80;99300.94;5019658;28;45393;-59
2023/09/21 11:41:43;;;;;;;;;2.00;1.00;;;;;27.02;44.54;99300.94;5019465;28;45329;-59
2023/09/21 11:44:10;;;;;;;;;0.00;0.00;;;;;27.03;44.96;99299.03;5019674;28;45329;-60
2023/09/21 11:46:39;;;;;;;;;1.00;1.00;;;;;26.95;44.89;99280.00;5019144;28;47526;-61
2023/09/21 11:49:05;;;;;;;;;0.00;0.00;;;;;27.14;45.41;99273.63;5019121;28;45373;-59
2023/09/21 11:51:30;;;;;;;;;0.00;0.00;;;;;27.15;44.82;99255.22;5018830;28;53421;-59
2023/09/21 11:53:58;;;;;;;;;0.50;0.00;;;;;27.20;44.66;99260.94;5019154;28;45539;-59
2023/09/21 11:56:24;;;;;;;;;0.50;0.50;;;;;27.15;44.27;99268.97;5019157;28;47087;-59
2023/09/21 11:58:49;;;;;;;;;1.00;1.00;;;;;27.12;45.22;99270.28;5019279;28;45322;-60
2023/09/21 12:01:22;;;;;;;;;0.75;0.75;;;;;26.97;45.38;99272.38;5019118;28;45496;-59
2023/09/21 12:03:51;;;;;;;;;1.00;0.00;;;;;26.80;45.31;99284.81;5013579;28;45422;-59
2023/09/21 12:06:16;;;;;;;;;0.00;0.00;;;;;26.93;44.37;99282.97;5018608;28;46467;-60
2023/09/21 12:08:42;;;;;;;;;0.50;0.25;;;;;26.81;44.35;99305.75;5018790;28;49539;-60
2023/09/21 12:11:07;;;;;;;;;0.00;0.00;;;;;26.59;44.90;99324.34;5000813;28;47687;-60
2023/09/21 12:13:35;;;;;;;;;0.50;0.50;;;;;26.33;45.80;99345.19;5001297;28;46555;-60
2023/09/21 12:16:02;;;;;;;;;0.00;0.00;;;;;26.44;45.44;99335.50;5017961;28;45930;-59
2023/09/21 12:18:29;;;;;;;;;0.25;0.25;;;;;26.48;44.91;99314.78;5018820;28;45255;-60
2023/09/21 12:20:57;;;;;;;;;0.00;0.00;;;;;26.45;45.13;99306.97;5018554;28;45464;-59
2023/09/21 12:23:26;;;;;;;;;2.25;1.00;;;;;26.48;45.42;99313.94;5018557;28;45501;-59
2023/09/21 12:25:52;;;;;;;;;0.00;0.00;;;;;26.62;44.81;99307.44;5018186;28;46427;-59
2023/09/21 12:28:19;;;;;;;;;0.00;0.00;;;;;26.54;44.94;99302.13;5018688;28;45302;-59
2023/09/21 12:30:47;;;;;;;;;0.00;0.00;;;;;26.74;44.82;99309.34;5012480;28;45243;-59
2023/09/21 12:33:15;;;;;;;;;1.50;0.00;;;;;26.52;44.84;99304.22;5011171;28;45393;-60
2023/09/21 12:35:40;;;;;;;;;0.00;0.00;;;;;26.70;44.28;99308.09;5018534;28;46145;-60
2023/09/21 12:38:06;;;;;;;;;1.00;1.00;;;;;26.85;44.38;99316.13;5018400;28;45315;-59
2023/09/21 12:40:32;;;;;;;;;0.00;0.00;;;;;26.62;45.01;99322.03;5017951;28;50357;-60
2023/09/21 12:42:57;;;;;;;;;0.00;0.00;;;;;26.74;44.77;99323.09;5018667;28;45333;-59
2023/09/21 12:45:23;;;;;;;;;0.00;0.00;;;;;26.33;45.92;99320.47;5018636;28;46309;-59
2023/09/21 12:47:48;;;;;;;;;1.00;1.00;;;;;26.59;45.18;99305.09;5018396;28;45254;-60
2023/09/21 12:50:15;;;;;;;;;1.00;1.00;;;;;26.67;45.04;99293.91;5018348;28;52481;-59
2023/09/21 12:52:42;;;;;;;;;1.50;0.25;;;;;26.77;45.22;99269.59;5018356;28;45370;-61
2023/09/21 12:55:09;;;;;;;;;0.25;0.25;;;;;26.80;44.61;99277.41;5018300;28;46408;-59
2023/09/21 12:57:40;;;;;;;;;1.50;0.25;;;;;26.70;44.92;99288.84;5018238;28;45324;-60
2023/09/21 13:00:18;;;;;;;;;0.00;0.00;;;;;26.63;45.53;99292.59;5018417;28;45388;-59
2023/09/21 13:02:45;;;;;;;;;0.25;0.25;;;;;26.63;45.22;99284.34;5013173;28;45595;-60
2023/09/21 13:05:14;;;;;;;;;0.00;0.00;;;;;26.62;45.33;99288.19;5017704;28;45286;-60
2023/09/21 13:07:43;;;;;;;;;1.00;1.00;;;;;26.67;44.93;99299.41;5017011;28;45127;-59
2023/09/21 13:10:11;;;;;;;;;1.00;0.50;;;;;26.72;45.31;99318.84;5018343;28;45451;-59
2023/09/21 13:12:37;;;;;;;;;0.00;0.00;;;;;26.63;45.66;99320.94;5018148;28;45564;-59
2023/09/21 13:15:03;;;;;;;;;1.50;0.50;;;;;26.46;45.47;99322.38;5018112;28;47048;-61
2023/09/21 13:17:31;;;;;;;;;3.00;1.00;;;;;26.64;45.82;99332.78;5017973;28;45238;-60
2023/09/21 13:20:00;;;;;;;;;2.50;1.00;;;;;26.71;45.87;99319.94;5018170;28;45480;-60
2023/09/21 13:22:25;;;;;;;;;1.25;1.25;;;;;27.00;45.50;99327.81;5017813;28;45541;-58
2023/09/21 13:24:51;;;;;;;;;1.00;1.00;;;;;27.04;45.19;99322.75;5018008;28;46307;-59
2023/09/21 13:27:17;;;;;;;;;0.50;0.50;;;;;27.22;45.20;99319.38;5018685;28;45397;-60
2023/09/21 13:29:43;;;;;;;;;0.00;0.00;;;;;27.13;44.69;99309.63;5021876;28;45345;-60
2023/09/21 13:32:09;;;;;;;;;1.75;0.00;;;;;26.95;45.14;99315.75;5007791;28;45491;-60
2023/09/21 13:34:35;;;;;;;;;0.00;0.00;;;;;27.29;45.17;99310.06;5021083;28;46467;-60
2023/09/21 13:37:01;;;;;;;;;1.00;1.00;;;;;27.48;44.84;99292.63;5021127;28;45431;-59
2023/09/21 13:39:26;;;;;;;;;0.00;0.00;;;;;27.29;44.67;99298.19;5021571;28;45302;-60
2023/09/21 13:41:58;;;;;;;;;1.00;0.00;;;;;27.39;44.70;99312.38;5021069;28;45445;-61
2023/09/21 13:44:26;;;;;;;;;0.00;0.00;;;;;27.39;44.06;99318.69;5021392;28;46409;-59
2023/09/21 13:46:54;;;;;;;;;1.00;1.00;;;;;27.18;44.62;99298.81;5020436;28;45408;-60
2023/09/21 13:49:20;;;;;;;;;0.00;0.00;;;;;26.99;44.83;99317.88;5021307;28;45399;-60
2023/09/21 13:51:46;;;;;;;;;0.00;0.00;;;;;27.20;44.75;99302.22;5020747;28;46011;-59
2023/09/21 13:54:12;;;;;;;;;0.00;0.00;;;;;27.22;45.11;99300.13;5020973;28;46413;-60
2023/09/21 13:56:39;;;;;;;;;0.00;0.00;;;;;27.08;45.00;99288.25;5020626;28;45370;-62
2023/09/21 13:59:04;;;;;;;;;1.75;0.00;;;;;27.08;44.84;99272.59;5020873;28;45346;-59
2023/09/21 14:01:30;;;;;;;;;0.00;0.00;;;;;27.18;45.15;99280.41;5020710;28;45612;-60
2023/09/21 14:03:57;;;;;;;;;0.75;0.75;;;;;27.21;45.33;99317.69;5016034;28;46094;-61
2023/09/21 14:06:23;;;;;;;;;0.75;0.75;;;;;27.09;45.43;99348.56;5020776;28;45334;-60
2023/09/21 14:08:49;;;;;;;;;0.00;0.00;;;;;27.10;45.01;99344.75;5020695;28;45350;-60
2023/09/21 14:11:14;;;;;;;;;1.00;1.00;;;;;27.20;44.67;99332.50;5020459;28;45593;-59
2023/09/21 14:13:40;;;;;;;;;0.50;0.50;;;;;27.12;44.63;99317.03;5020633;28;47030;-60
2023/09/21 14:16:08;;;;;;;;;2.00;1.00;;;;;27.21;44.35;99324.03;5020548;28;45338;-59
2023/09/21 14:18:34;;;;;;;;;0.25;0.00;;;;;26.84;44.02;99344.69;5020606;28;45266;-59
2023/09/21 14:20:59;;;;;;;;;0.00;0.00;;;;;27.13;44.16;99332.50;5020488;28;45310;-59
2023/09/21 14:23:24;;;;;;;;;0.50;0.50;;;;;27.06;43.07;99334.38;5020599;28;45719;-60
2023/09/21 14:25:50;;;;;;;;;0.75;0.75;;;;;26.77;43.16;99351.25;5020376;28;53769;-59
2023/09/21 14:28:15;;;;;;;;;1.00;1.00;;;;;26.81;44.37;99352.50;5020633;28;45724;-59
2023/09/21 14:30:40;;;;;;;;;1.00;1.00;;;;;26.80;43.34;99337.91;5014716;28;45875;-59
2023/09/21 14:33:07;;;;;;;;;0.00;0.00;;;;;26.78;43.89;99329.03;5012578;28;45381;-59
2023/09/21 14:35:34;;;;;;;;;1.00;1.00;;;;;26.87;43.66;99315.94;5020379;28;45410;-60
2023/09/21 14:38:01;;;;;;;;;0.00;0.00;;;;;27.01;42.49;99318.50;5019190;28;45547;-59
2023/09/21 14:40:26;;;;;;;;;3.00;0.50;;;;;27.20;43.09;99322.31;5019836;28;45528;-60
2023/09/21 14:42:51;;;;;;;;;0.00;0.00;;;;;27.29;42.63;99322.97;5020365;28;46142;-60
2023/09/21 14:45:18;;;;;;;;;2.00;1.00;;;;;27.33;42.36;99330.56;5020476;28;45329;-59
2023/09/21 14:47:43;;;;;;;;;0.00;0.00;;;;;27.20;42.04;99319.56;5019515;28;45281;-61
2023/09/21 14:50:09;;;;;;;;;0.25;0.25;;;;;26.94;42.89;99314.91;5019657;28;56625;-58
2023/09/21 14:52:35;;;;;;;;;0.25;0.00;;;;;27.02;42.60;99319.34;5020017;28;46253;-59
2023/09/21 14:55:00;;;;;;;;;0.25;0.25;;;;;26.94;42.41;99311.31;5019876;28;45343;-58
2023/09/21 14:57:26;;;;;;;;;0.50;0.50;;;;;27.00;42.47;99308.56;5020336;28;45317;-59
2023/09/21 14:59:51;;;;;;;;;1.00;1.00;;;;;26.87;42.80;99333.28;5019841;28;45859;-60
2023/09/21 15:02:17;;;;;;;;;0.00;0.00;;;;;26.70;42.85;99310.84;5015954;28;45452;-59
2023/09/21 15:04:43;;;;;;;;;1.25;1.25;;;;;26.71;42.63;99320.75;5018796;28;45305;-59
2023/09/21 15:07:09;;;;;;;;;0.00;0.00;;;;;26.61;43.07;99306.59;5019966;28;45345;-60
2023/09/21 15:09:35;;;;;;;;;2.00;0.50;;;;;26.86;43.21;99304.09;5019766;28;45414;-59
2023/09/21 15:12:03;;;;;;;;;1.00;1.00;;;;;26.88;42.42;99301.13;5019325;28;46091;-60
2023/09/21 15:14:29;;;;;;;;;1.00;1.00;;;;;26.83;41.86;99296.25;5019770;28;45345;-60
2023/09/21 15:16:55;;;;;;;;;3.50;1.00;;;;;27.02;42.61;99305.59;5019078;28;45342;-59
2023/09/21 15:19:20;;;;;;;;;0.50;0.50;;;;;27.47;41.98;99310.25;5019362;28;45432;-60
2023/09/21 15:21:45;;;;;;;;;1.25;0.25;;;;;28.16;40.14;99309.66;5019353;28;54214;-59
2023/09/21 15:24:11;;;;;;;;;0.00;0.00;;;;;28.60;39.20;99307.94;5019270;28;45351;-60
2023/09/21 15:26:36;;;;;;;;;0.75;0.75;;;;;28.97;38.73;99303.50;5019879;28;45279;-59
2023/09/21 15:29:01;;;;;;;;;1.00;1.00;;;;;29.78;37.33;99300.63;5018933;28;57437;-60
2023/09/21 15:31:27;;;;;;;;;0.50;0.50;;;;;30.07;35.77;99299.06;5007654;28;45290;-60
2023/09/21 15:33:52;;;;;;;;;3.00;1.00;;;;;30.49;35.96;99311.06;5017848;28;45353;-60
2023/09/21 15:36:18;;;;;;;;;0.75;0.75;;;;;30.77;34.89;99318.78;5019835;28;45346;-59
2023/09/21 15:38:44;;;;;;;;;1.00;0.00;;;;;30.82;35.62;99316.13;5019236;28;45309;-59
2023/09/21 15:41:09;;;;;;;;;0.00;0.00;;;;;31.20;34.98;99313.00;5018749;28;63776;-60
2023/09/21 15:43:35;;;;;;;;;2.25;0.75;;;;;31.66;33.21;99311.34;5019247;28;45342;-60
2023/09/21 15:46:00;;;;;;;;;1.25;1.25;;;;;31.93;33.44;99313.38;5019598;28;45273;-60
2023/09/21 15:48:31;;;;;;;;;2.00;1.00;;;;;31.85;32.33;99302.69;5018952;28;45546;-60
2023/09/21 15:50:57;;;;;;;;;1.00;1.00;;;;;32.08;31.70;99323.97;5018388;28;46022;-60
2023/09/21 15:53:22;;;;;;;;;0.00;0.00;;;;;32.29;32.40;99312.25;5018909;28;45314;-59
2023/09/21 15:55:47;;;;;;;;;0.00;0.00;;;;;32.77;31.50;99321.25;5019467;28;45412;-59
2023/09/21 15:58:13;;;;;;;;;3.00;1.25;;;;;32.82;30.95;99307.50;5018684;28;45346;-60
2023/09/21 16:00:38;;;;;;;;;2.00;2.00;;;;;33.32;31.27;99310.34;5018621;28;45426;-61
2023/09/21 16:03:04;;;;;;;;;0.50;0.50;;;;;33.94;29.43;99319.34;5016335;28;48804;-59
2023/09/21 16:05:30;;;;;;;;;1.75;0.25;;;;;33.40;29.90;99329.34;5018706;28;45361;-60